Aviation Digital Data Service (ADDS)

Output produced by METARs form (0928 UTC 17 November 2018)
found at http://www.aviationweather.gov/metar/data/
 
EFTP 170920Z AUTO 27012KT CAVOK 06/04 Q1032
EFTP 170850Z AUTO 27009KT CAVOK 06/04 Q1032
EFTP 170820Z AUTO 26010KT 9999 FEW005 05/04 Q1032
EFTP 170750Z AUTO 25012KT 9999 FEW005 05/04 Q1032
EFTP 170650Z AUTO 25006KT 9999 SCT005 BKN007 BKN009 05/04 Q1032
EFTP 170620Z AUTO 26006KT 230V300 9999 FEW005 BKN007 BKN011 05/05 Q1032
EFTP 170550Z AUTO 25010KT 9999 BKN005 BKN008 05/05 Q1032
EFTP 170520Z AUTO 26009KT 9999 BKN005 BKN007 06/05 Q1032
EFTP 170450Z AUTO 26012KT 9999 BKN006 BKN008 06/05 Q1032
EFTP 170420Z AUTO 25012KT 9999 BKN006 OVC008 06/05 Q1032
EFTP 170350Z AUTO 25011KT 9999 BKN007 06/05 Q1032
EFTP 170320Z AUTO 24011KT 9999 BKN007 OVC009 06/05 Q1032
EFTP 170250Z AUTO 24012KT 9999 BKN008 OVC010 06/05 Q1032
EFTP 170220Z AUTO 24012KT 9999 OVC009 06/05 Q1033
EFTP 170150Z AUTO 24010KT 9999 BKN009 BKN011 06/05 Q1033
EFTP 170120Z AUTO 24009KT 9999 OVC010 06/05 Q1033
EFTP 170050Z AUTO 25008KT 9999 BKN010 06/05 Q1033
EFTP 170020Z AUTO 24010KT 9999 SCT009 BKN011 06/05 Q1033
EFTP 162350Z AUTO 25008KT 9999 BKN009 OVC011 06/05 Q1033
EFTP 162320Z AUTO 24011KT 9999 BKN010 06/05 Q1033
EFTP 162250Z AUTO 25012KT 9999 OVC011 07/05 Q1033
EFTP 162220Z AUTO 24011KT 9999 OVC011 07/05 Q1033
EFTP 162150Z AUTO 24015KT 9999 OVC011 07/05 Q1032
EFTP 162120Z AUTO 25011KT 9999 BKN012 07/05 Q1032
EFTP 162050Z AUTO 24013KT 9999 OVC011 07/05 Q1032
EFTP 162020Z AUTO 24013KT 9999 ////// 07/05 Q1032
EFTP 161950Z AUTO 24015KT 9999 ////// 07/05 Q1032
EFTP 161920Z AUTO 24014KT 9999 OVC011 07/05 Q1032
EFTP 161850Z AUTO 24015KT 9999 ////// 07/05 Q1032
EFTP 161820Z AUTO 24015G26KT 9999 BKN010 OVC013 07/05 Q1032
EFTP 161750Z AUTO 23014KT 9999 BKN011 OVC014 07/05 Q1032
EFTP 161720Z AUTO 23015KT 9999 BKN013 BKN016 07/05 Q1032
EFTP 161650Z AUTO 22015KT 9999 FEW015 07/05 Q1031
EFTP 161620Z AUTO 23012KT CAVOK 07/05 Q1032
EFTP 161550Z AUTO 22011KT CAVOK 07/05 Q1032
EFTP 161520Z AUTO 22009KT CAVOK 07/05 Q1031
EFTP 161450Z AUTO 22010KT CAVOK 07/05 Q1031
EFTP 161420Z AUTO 23011KT CAVOK 07/05 Q1031
EFTP 161350Z AUTO 22010KT CAVOK 08/05 Q1031
EFTP 161320Z 21010KT CAVOK 08/06 Q1031
EFTP 161250Z 22012KT 9999 FEW012 BKN200 09/06 Q1031
EFTP 161220Z 22013KT 9999 FEW012 BKN200 09/06 Q1031
EFTP 161150Z 21010KT 9999 FEW012 BKN200 08/07 Q1031
EFTP 161120Z 21009KT 9999 FEW013 BKN200 08/07 Q1031
EFTP 161050Z 21011KT 9999 FEW012 SCT160 08/07 Q1031
EFTP 161020Z 21011KT 9999 SCT011 BKN160 08/07 Q1031
EFTP 160950Z 21012KT 9999 FEW008 BKN012 08/07 Q1031
EFTP 160920Z 21011KT 9999 FEW008 SCT012 BKN120 08/08 Q1031
EFTP 160850Z 20009KT 9999 BKN008 08/08 Q1031
EFTP 160820Z 21010KT 9999 BKN006 08/08 Q1031
EFTP 160750Z 22012KT 9999 BKN006 08/08 Q1031
EFTP 160720Z 21010KT 9999 BKN006 08/08 Q1031
EFTP 160650Z 21009KT 7000 -DZ FEW004 BKN007 08/08 Q1031
EFTP 160620Z 20007KT 6000 -DZ FEW004 BKN007 08/08 Q1031
EFTP 160550Z AUTO 20008KT 8000 FEW005 BKN008 OVC010 08/08 Q1030
EFTP 160520Z AUTO 21009KT 9999 FEW005 BKN007 OVC010 08/08 Q1030
EFTP 160450Z AUTO 20009KT 8000 FEW003 BKN005 OVC007 08/08 Q1030
EFTP 160420Z AUTO 20007KT 6000 FEW002 BKN005 OVC007 08/08 Q1030
EFTP 160350Z AUTO 19007KT 6000 FEW002 SCT005 BKN007 OVC009 08/08 Q1030
EFTP 160320Z AUTO 20007KT 6000 FEW002 BKN004 OVC006 08/08 Q1030
EFTP 160250Z AUTO 18007KT 6000 ////// 08/08 Q1030
EFTP 160220Z AUTO 19006KT 7000 FEW003 BKN006 OVC008 08/08 Q1029
EFTP 160150Z AUTO 19007KT 8000 FEW004 BKN006 OVC008 08/08 Q1029
EFTP 160120Z AUTO 19008KT 9000 FEW003 SCT005 BKN007 OVC009 08/07 Q1029
EFTP 160050Z AUTO 19007KT 8000 FEW003 BKN005 OVC007 08/07 Q1029
EFTP 160020Z AUTO 19008KT 5000 SCT003 BKN005 OVC007 07/07 Q1029
EFTP 152350Z AUTO 19007KT 6000 FEW002 BKN004 OVC006 07/07 Q1029
EFTP 152320Z AUTO 19006KT 4300 BR SCT002 BKN005 OVC007 07/07 Q1029
EFTP 152250Z AUTO 19007KT 3400 BR SCT002 BKN004 OVC006 07/07 Q1029
EFTP 152220Z AUTO 19007KT 3700 BR SCT002 BKN005 OVC007 07/07 Q1029
EFTP 152150Z AUTO 19008KT 3600 BR FEW002 BKN004 OVC008 07/07 Q1029
TAF EFTP 170837Z 1709/1809 26012KT 9999 FEW006 
     BECMG 1711/1713 32012KT 
     PROB40 
     TEMPO 1718/1809 33012G22KT